| Date | Time | Temp. (oF) | Dew Point (oF) | Rel. Hum. (%) | Press. (in.) | Wind Dir. | Wind Speed (mph) | Hourly Rainfall (in.) |
|
|---|---|---|---|---|---|---|---|---|---|
| 1 | 12/27 | 00:00 | 29 | 23 | 79 | 30.24 | W | 5 | 0.00 |
| 2 | 12/26 | 23:00 | 29 | 23 | 79 | 30.24 | W | 6 | 0.00 |
| 3 | 12/26 | 22:00 | 29 | 23 | 79 | 30.23 | NW | 7 | 0.00 |
| 4 | 12/26 | 21:00 | 31 | 24 | 78 | 30.23 | WNW | 8 | 0.00 |
| 5 | 12/26 | 20:00 | 31 | 24 | 78 | 30.22 | WNW | 4 | 0.00 |
| 6 | 12/26 | 19:00 | 31 | 24 | 76 | 30.20 | WNW | 8 | 0.00 |
| 7 | 12/26 | 18:00 | 32 | 25 | 76 | 30.18 | NW | 9 | 0.00 |
| 8 | 12/26 | 17:00 | 32 | 24 | 74 | 30.16 | W | 9 | 0.00 |
| 9 | 12/26 | 16:00 | 34 | 25 | 72 | 30.13 | W | 6 | 0.00 |
| 10 | 12/26 | 15:00 | 35 | 26 | 72 | 30.10 | WNW | 9 | 0.00 |
| 11 | 12/26 | 14:00 | 35 | 27 | 73 | 30.09 | WNW | 11 | 0.00 |
| 12 | 12/26 | 13:00 | 35 | 26 | 72 | 30.09 | WNW | 18 | 0.00 |
| 13 | 12/26 | 12:00 | 34 | 27 | 77 | 30.08 | WSW | 7 | 0.00 |
| 14 | 12/26 | 11:00 | 33 | 26 | 78 | 30.10 | NW | 7 | 0.00 |
| 15 | 12/26 | 10:00 | 32 | 24 | 75 | 30.09 | WNW | 8 | 0.00 |
| 16 | 12/26 | 09:00 | 30 | 23 | 77 | 30.06 | W | 9 | 0.00 |
| 17 | 12/26 | 08:00 | 29 | 23 | 80 | 30.02 | WNW | 7 | 0.00 |
| 18 | 12/26 | 07:00 | 29 | 23 | 80 | 29.96 | NW | 10 | 0.00 |
| 19 | 12/26 | 06:00 | 30 | 25 | 83 | 29.90 | NW | 7 | 0.00 |
| 20 | 12/26 | 05:00 | 30 | 25 | 84 | 29.85 | NW | 7 | 0.00 |
| 21 | 12/26 | 04:00 | 30 | 26 | 86 | 29.82 | WNW | 10 | 0.00 |
| 22 | 12/26 | 03:00 | 30 | 26 | 85 | 29.78 | WNW | 10 | 0.00 |
| 23 | 12/26 | 02:00 | 30 | 25 | 84 | 29.73 | WNW | 15 | 0.00 |
| 24 | 12/26 | 01:00 | 30 | 26 | 86 | 29.67 | NW | 11 | 0.00 |